Last 7 Days

Scotts Valley

Hourly Data | America/Los_Angeles
as of 9/4/26 6:16 AM PDT
Date & Time Temp (°F) RH (%) Dew Pt (°F) Wind Dir (°) Wind Spd (mph) Wind Gust (mph) Leaf Wet (mins) BatVolt (V) Latest Rain (In) Max Rain Intensity (In/Hr) Precip 24Hr (In) Daily Rain (In) Daily Min Temp (°F) Daily Max Temp (°F) Daily Max Wind (mph) Daily Leaf Wet (Hrs)
9/4/26 - 0600 37.0 98 36.3 SSW | 193 0.1 1.1 60.0 12.5 0.00 - - 0.00 36.4 42.8 1.6 5.0
9/4/26 - 0500 38.0 96 37.1 N | 0 0.0 0.0 60.0 12.5 0.00 - - 0.00 37.0 42.8 1.6 4.0
9/4/26 - 0400 39.6 96 38.6 SSE | 151 0.2 1.5 60.0 12.5 0.00 - - 0.00 38.8 42.8 1.6 3.0
9/4/26 - 0300 42.0 97 41.2 SW | 219 0.3 1.6 60.0 12.6 0.00 - - 0.00 40.6 42.8 1.6 2.0
9/4/26 - 0200 42.2 96 41.2 SW | 219 0.1 1.3 60.0 12.6 0.00 - - 0.00 41.7 42.8 1.3 1.0
9/4/26 - 0100 44.1 94 42.5 SW | 219 0.1 1.3 25.1 12.6 0.00 - - 0.00 42.8 69.3 13.2 3.0
9/4/26 - 0000 46.9 92 44.8 SW | 224 0.2 1.2 0.0 12.6 0.00 - - 0.00 45.1 69.3 13.2 2.6
9/3/26 - 2300 51.2 88 47.8 WSW | 240 0.1 1.5 0.0 12.7 0.00 - - 0.00 48.7 69.3 13.2 2.6
9/3/26 - 2200 56.3 84 51.6 NW | 321 0.3 2.8 0.0 12.8 0.00 - - 0.00 54.7 69.3 13.2 2.6
9/3/26 - 2100 57.2 84 52.3 NW | 317 0.6 5.3 0.0 12.8 0.00 - - 0.00 57.0 69.3 13.2 2.6
9/3/26 - 2000 57.8 83 52.7 WNW | 287 0.9 7.1 0.0 13.0 0.00 - - 0.00 57.7 69.3 13.2 2.6
9/3/26 - 1900 59.8 77 52.4 WNW | 297 1.3 6.7 0.0 13.1 0.00 - - 0.00 58.3 69.3 13.2 2.6
9/3/26 - 1800 60.3 75 52.4 WNW | 302 1.5 7.2 0.0 13.3 0.00 - - 0.00 58.3 69.3 13.2 2.6
9/3/26 - 1700 60.0 82 54.5 NW | 325 2.0 8.6 0.0 13.4 0.00 - - 0.00 58.3 69.3 13.2 2.6
9/3/26 - 1600 61.9 77 54.5 NW | 316 2.5 12.5 0.0 13.4 0.00 - - 0.00 58.3 69.3 13.2 2.6
9/3/26 - 1500 67.3 56 51.2 WSW | 241 4.8 13.2 0.0 13.4 0.00 - - 0.00 58.3 69.3 13.2 2.6
9/3/26 - 1400 67.3 56 51.1 WSW | 245 4.5 11.8 0.0 13.4 0.00 - - 0.00 58.3 69.3 11.8 2.6
9/3/26 - 1300 66.6 65 54.2 WSW | 254 3.0 10.1 0.0 13.4 0.00 - - 0.00 58.3 68.2 10.1 2.6
9/3/26 - 1200 64.5 73 55.7 SW | 221 3.6 9.3 0.0 13.4 0.00 - - 0.00 58.3 65.3 9.3 2.6
9/3/26 - 1100 62.0 84 57.0 SW | 220 2.4 9.0 0.0 13.5 0.00 - - 0.00 58.3 63.5 9.0 2.6
9/3/26 - 1000 60.5 93 58.5 S | 176 1.8 7.7 39.6 13.2 0.00 - - 0.00 58.3 61.2 7.7 2.6
9/3/26 - 0900 59.5 96 58.2 E | 79 0.7 5.2 60.0 12.7 0.00 - - 0.00 58.3 59.8 6.0 1.9
9/3/26 - 0800 59.0 94 57.1 SE | 146 0.1 1.5 55.0 12.6 0.00 - - 0.00 58.3 59.3 6.0 0.9
9/3/26 - 0700 59.2 89 55.9 SSE | 150 0.1 1.4 0.0 12.5 0.00 - 0.01 0.00 58.3 59.3 6.0 0.0
9/3/26 - 0600 58.9 88 55.2 SSE | 152 1.0 3.9 0.0 12.5 0.00 - 0.01 0.00 58.3 59.2 6.0 0.0
9/3/26 - 0500 58.6 87 54.8 SSE | 164 1.5 4.3 0.0 12.6 0.00 - 0.02 0.00 58.3 59.2 6.0 0.0
9/3/26 - 0400 58.8 84 53.8 SE | 144 1.2 3.8 0.0 12.6 0.00 - 0.02 0.00 58.3 59.2 6.0 0.0
9/3/26 - 0300 58.8 81 53.1 SSW | 197 1.6 6.0 0.0 12.6 0.00 - 0.02 0.00 58.3 59.2 6.0 0.0
9/3/26 - 0200 58.7 76 51.3 S | 190 1.1 5.9 0.0 12.6 0.00 - 0.02 0.00 58.3 59.2 5.9 0.0
9/3/26 - 0100 58.6 74 50.3 WNW | 293 0.1 1.9 0.0 12.6 0.00 - 0.02 0.02 52.1 73.2 14.5 4.5
9/3/26 - 0000 58.4 74 50.0 W | 260 0.1 1.6 0.0 12.7 0.00 - 0.02 0.02 52.1 73.2 14.5 4.5
9/2/26 - 2300 58.7 70 49.2 SW | 216 0.2 3.7 0.0 12.7 0.00 - 0.02 0.02 52.1 73.2 14.5 4.5
9/2/26 - 2200 59.1 66 47.8 ESE | 112 0.4 2.2 0.0 12.8 0.00 - 0.02 0.02 52.1 73.2 14.5 4.5
9/2/26 - 2100 60.6 61 47.0 WSW | 253 1.7 9.0 0.0 12.9 0.00 - 0.02 0.02 52.1 73.2 14.5 4.5
9/2/26 - 2000 62.0 60 48.1 WSW | 243 4.0 11.7 0.0 13.1 0.00 - 0.02 0.02 52.1 73.2 14.5 4.5
9/2/26 - 1900 66.2 54 49.3 SW | 231 4.6 13.9 0.0 13.3 0.00 - 0.02 0.02 52.1 73.2 14.5 4.5
9/2/26 - 1800 67.3 51 48.4 SW | 228 4.2 13.0 0.0 13.4 0.00 - 0.02 0.02 52.1 73.2 14.5 4.5
9/2/26 - 1700 71.2 46 49.3 SW | 231 4.8 14.5 0.0 13.2 0.00 - 0.02 0.02 52.1 73.2 14.5 4.5
9/2/26 - 1600 70.7 50 51.2 SW | 218 4.5 14.0 0.0 13.3 0.00 - 0.02 0.02 52.1 72.7 14.1 4.5
9/2/26 - 1500 70.7 50 51.4 SW | 219 4.2 12.3 0.0 13.3 0.00 - 0.02 0.02 52.1 72.7 14.1 4.5
9/2/26 - 1400 71.4 49 51.5 SW | 233 5.0 14.1 0.0 13.3 0.00 - 0.02 0.02 52.1 72.7 14.1 4.5
9/2/26 - 1300 68.8 58 53.2 SSW | 206 3.5 10.8 0.0 13.2 0.00 - 0.02 0.02 52.1 71.5 10.8 4.5
9/2/26 - 1200 66.2 67 55.0 SSW | 198 2.8 8.7 0.0 13.3 0.00 - 0.02 0.02 52.1 68.1 8.7 4.5
9/2/26 - 1100 60.4 88 56.8 S | 180 1.5 7.2 14.2 13.5 0.00 - 0.02 0.02 52.1 63.8 7.2 4.5
9/2/26 - 1000 58.3 94 56.7 E | 84 0.4 2.6 4.4 13.5 0.00 - 0.02 0.02 52.1 59.5 2.7 4.3
9/2/26 - 0900 55.8 97 55.1 NNE | 24 0.3 2.2 60.0 13.2 0.00 - 0.02 0.02 52.1 56.7 2.7 4.2
9/2/26 - 0800 54.4 98 53.7 N | 353 0.3 2.7 60.0 12.6 0.01 0.01 0.02 0.02 52.1 55.0 2.7 3.2
9/2/26 - 0700 53.8 97 53.0 NW | 318 0.0 1.5 60.0 12.5 0.00 - 0.01 0.01 52.1 54.4 2.6 2.2
9/2/26 - 0600 53.8 95 52.6 W | 272 0.6 2.3 60.0 12.5 0.01 0.01 0.01 0.01 52.1 54.4 2.6 1.2
9/2/26 - 0500 54.2 92 52.0 W | 275 0.2 2.0 11.9 12.6 0.00 - - 0.00 52.1 54.4 2.6 0.2
9/2/26 - 0400 53.6 93 51.8 NW | 305 0.2 2.1 0.0 12.6 0.00 - - 0.00 52.1 53.8 2.6 0.0
9/2/26 - 0300 53.2 94 51.4 NNW | 340 0.1 1.3 0.0 12.6 0.00 - - 0.00 52.1 53.6 2.6 0.0
9/2/26 - 0200 52.4 94 50.8 NW | 318 0.3 2.6 0.0 12.6 0.00 - - 0.00 52.1 52.8 2.6 0.0
9/2/26 - 0100 51.8 96 50.6 NW | 315 0.3 3.0 0.0 12.6 0.00 - - 0.00 47.0 74.3 14.4 0.2
9/2/26 - 0000 50.1 96 49.0 WSW | 253 0.3 3.1 0.0 12.6 0.00 - - 0.00 47.0 74.3 14.4 0.2
9/1/26 - 2300 51.0 90 48.1 WNW | 303 0.2 1.5 0.0 12.7 0.00 - - 0.00 47.0 74.3 14.4 0.2
9/1/26 - 2200 55.6 87 51.9 NW | 305 0.9 4.3 14.1 12.8 0.00 - - 0.00 47.0 74.3 14.4 0.2
9/1/26 - 2100 58.1 78 51.4 NW | 325 0.7 4.7 0.0 12.9 0.00 - - 0.00 47.0 74.3 14.4 0.0
9/1/26 - 2000 61.0 66 49.4 NW | 308 1.7 8.8 0.0 13.0 0.00 - - 0.00 47.0 74.3 14.4 0.0
9/1/26 - 1900 64.1 57 48.3 WSW | 254 4.3 12.6 0.0 13.2 0.00 - - 0.00 47.0 74.3 14.4 0.0
9/1/26 - 1800 67.1 51 48.2 WSW | 238 3.9 9.4 0.0 13.4 0.00 - - 0.00 47.0 74.3 14.4 0.0
9/1/26 - 1700 68.9 50 49.7 W | 275 2.4 8.0 0.0 13.3 0.00 - - 0.00 47.0 74.3 14.4 0.0
9/1/26 - 1600 69.2 51 50.3 WSW | 251 5.0 13.0 0.0 13.3 0.00 - - 0.00 47.0 74.3 14.4 0.0
9/1/26 - 1500 71.7 43 48.3 SW | 218 4.8 14.4 0.0 13.2 0.00 - - 0.00 47.0 74.3 14.4 0.0
9/1/26 - 1400 67.6 51 49.1 WNW | 296 1.8 9.1 0.0 13.3 0.00 - - 0.00 47.0 72.4 9.1 0.0
9/1/26 - 1300 66.1 58 51.1 WNW | 282 1.9 7.1 0.0 13.4 0.00 - - 0.00 47.0 67.0 8.0 0.0
9/1/26 - 1200 63.9 63 50.9 SSE | 159 1.6 6.9 0.0 13.4 0.00 - - 0.00 47.0 65.0 8.0 0.0
9/1/26 - 1100 61.9 65 50.1 NE | 50 1.1 5.3 0.0 13.5 0.00 - - 0.00 47.0 62.3 8.0 0.0
9/1/26 - 1000 60.5 69 50.1 NE | 34 1.7 6.1 0.0 13.5 0.00 - - 0.00 47.0 61.5 8.0 0.0
9/1/26 - 0900 57.9 75 49.9 W | 262 1.9 8.0 0.0 13.1 0.00 - - 0.00 47.0 59.3 8.0 0.0
9/1/26 - 0800 56.2 83 51.0 WNW | 301 0.9 4.7 0.0 12.6 0.00 - - 0.00 47.0 57.0 4.8 0.0
9/1/26 - 0700 56.0 83 50.9 W | 268 0.9 4.8 0.0 12.5 0.00 - - 0.00 47.0 56.2 4.8 0.0
9/1/26 - 0600 55.6 83 50.5 NW | 311 0.6 4.2 0.0 12.5 0.00 - - 0.00 47.0 56.1 4.6 0.0
9/1/26 - 0500 53.1 89 50.0 W | 276 0.4 3.3 0.0 12.5 0.00 - - 0.00 47.0 54.6 4.6 0.0
9/1/26 - 0400 49.7 93 47.9 WNW | 294 0.0 0.7 0.0 12.5 0.00 - - 0.00 47.0 52.4 4.6 0.0
9/1/26 - 0300 47.6 92 45.4 WNW | 288 0.1 1.0 0.0 12.6 0.00 - - 0.00 47.0 52.4 4.6 0.0
9/1/26 - 0200 51.3 87 47.6 NNW | 346 0.3 4.6 0.0 12.6 0.00 - - 0.00 48.2 52.4 4.6 0.0
9/1/26 - 0100 53.0 85 48.5 NW | 318 0.6 5.9 0.0 12.6 0.00 - - 0.00 41.2 85.4 15.2 0.0
9/1/26 - 0000 54.7 82 49.3 W | 281 1.2 7.3 0.0 12.6 0.00 - - 0.00 41.2 85.4 15.2 0.0
8/31/26 - 2300 55.9 78 49.0 W | 271 2.4 8.0 0.0 12.7 0.00 - - 0.00 41.2 85.4 15.2 0.0
8/31/26 - 2200 59.1 70 49.3 W | 267 3.1 9.1 0.0 12.7 0.00 - - 0.00 41.2 85.4 15.2 0.0
8/31/26 - 2100 62.9 62 49.8 WNW | 296 1.8 7.7 0.0 12.8 0.00 - - 0.00 41.2 85.4 15.2 0.0
8/31/26 - 2000 68.2 56 51.8 W | 267 2.5 9.0 0.0 13.0 0.00 - - 0.00 41.2 85.4 15.2 0.0
8/31/26 - 1900 75.2 47 53.3 W | 273 2.8 11.5 0.0 13.2 0.00 - - 0.00 41.2 85.4 15.2 0.0
8/31/26 - 1800 79.3 42 54.1 WSW | 254 3.8 12.1 0.0 13.1 0.00 - - 0.00 41.2 85.4 15.2 0.0
8/31/26 - 1700 81.6 38 53.8 WSW | 237 5.0 15.2 0.0 13.1 0.00 - - 0.00 41.2 85.4 15.2 0.0
8/31/26 - 1600 83.0 34 52.1 SW | 224 5.0 13.5 0.0 13.1 0.00 - - 0.00 41.2 85.4 15.1 0.0
8/31/26 - 1500 83.9 31 50.5 SW | 224 5.2 15.1 0.0 13.1 0.00 - - 0.00 41.2 85.4 15.1 0.0
8/31/26 - 1400 83.9 30 49.2 SSW | 213 4.7 12.8 0.0 13.1 0.00 - - 0.00 41.2 85.3 12.8 0.0
8/31/26 - 1300 83.9 31 50.4 SE | 128 2.8 7.9 0.0 13.0 0.00 - - 0.00 41.2 85.3 7.9 0.0
8/31/26 - 1200 80.1 36 50.7 SSE | 156 2.5 7.0 0.0 13.1 0.00 - - 0.00 41.2 83.0 7.0 0.0
8/31/26 - 1100 76.0 42 51.0 ESE | 121 1.7 5.6 0.0 13.1 0.00 - - 0.00 41.2 79.1 5.8 0.0
8/31/26 - 1000 72.1 49 52.0 SSE | 168 1.6 5.8 0.0 13.2 0.00 - - 0.00 41.2 74.0 5.8 0.0
8/31/26 - 0900 62.9 57 47.3 E | 96 0.2 3.3 0.0 13.4 0.00 - - 0.00 41.2 69.2 3.3 0.0
8/31/26 - 0800 47.1 84 42.2 S | 172 0.0 0.8 0.0 12.8 0.00 - - 0.00 41.2 56.8 1.0 0.0
8/31/26 - 0700 41.5 90 38.8 S | 172 0.1 1.0 0.0 12.5 0.00 - - 0.00 41.2 48.8 1.0 0.0
8/31/26 - 0600 42.5 89 39.4 SSE | 168 0.0 0.9 0.0 12.5 0.00 - - 0.00 42.0 48.8 1.0 0.0
8/31/26 - 0500 43.3 87 39.6 SSE | 167 0.1 1.0 0.0 12.5 0.00 - - 0.00 42.7 48.8 1.0 0.0
8/31/26 - 0400 44.6 85 40.2 N | 0 0.0 0.0 0.0 12.5 0.00 - - 0.00 43.8 48.8 0.9 0.0
8/31/26 - 0300 46.1 83 41.3 N | 0 0.0 0.0 0.0 12.5 0.00 - - 0.00 45.4 48.8 0.9 0.0
8/31/26 - 0200 47.8 81 42.2 SSE | 168 0.0 0.9 0.0 12.6 0.00 - - 0.00 46.8 48.8 0.9 0.0
8/31/26 - 0100 49.8 77 43.0 SSE | 168 0.0 0.8 0.0 12.6 0.00 - - 0.00 40.6 93.7 11.5 0.0
8/31/26 - 0000 52.2 74 44.2 SSE | 167 0.0 1.0 0.0 12.6 0.00 - - 0.00 40.6 93.7 11.5 0.0
8/30/26 - 2300 55.3 70 45.6 SSE | 168 0.0 0.8 0.0 12.6 0.00 - - 0.00 40.6 93.7 11.5 0.0
8/30/26 - 2200 60.2 61 46.5 SSW | 199 0.1 0.9 0.0 12.7 0.00 - - 0.00 40.6 93.7 11.5 0.0
8/30/26 - 2100 68.3 48 48.0 WSW | 244 0.8 3.8 0.0 12.8 0.00 - - 0.00 40.6 93.7 11.5 0.0
8/30/26 - 2000 77.4 37 49.3 WSW | 257 1.9 8.4 0.0 12.9 0.00 - - 0.00 40.6 93.7 11.5 0.0
8/30/26 - 1900 84.4 31 50.3 W | 271 3.0 11.5 0.0 13.1 0.00 - - 0.00 40.6 93.7 11.5 0.0
8/30/26 - 1800 88.3 29 51.7 WSW | 253 3.7 11.4 0.0 13.0 0.00 - - 0.00 40.6 93.7 11.5 0.0
8/30/26 - 1700 91.7 20 45.0 SE | 140 3.2 11.5 0.0 13.0 0.00 - - 0.00 40.6 93.7 11.5 0.0
8/30/26 - 1600 91.3 17 40.4 E | 86 2.3 8.8 0.0 13.0 0.00 - - 0.00 40.6 92.8 9.5 0.0
8/30/26 - 1500 89.9 16 37.1 SE | 127 1.9 5.9 0.0 13.0 0.00 - - 0.00 40.6 92.5 9.5 0.0
8/30/26 - 1400 88.0 19 40.0 SSE | 158 2.8 9.5 0.0 13.1 0.00 - - 0.00 40.6 90.1 9.5 0.0
8/30/26 - 1300 85.2 25 45.2 SE | 145 2.8 9.2 0.0 13.0 0.00 - - 0.00 40.6 86.7 9.2 0.0
8/30/26 - 1200 81.4 31 48.3 SSE | 148 2.3 8.3 0.0 13.1 0.00 - - 0.00 40.6 83.8 8.3 0.0
8/30/26 - 1100 76.9 38 49.3 SSE | 148 1.9 5.9 0.0 13.1 0.00 - - 0.00 40.6 80.2 5.9 0.0
8/30/26 - 1000 71.5 47 50.3 ESE | 104 1.1 4.6 0.0 13.2 0.00 - - 0.00 40.6 74.8 4.6 0.0
8/30/26 - 0900 61.4 63 48.7 NNE | 29 0.3 2.7 0.0 13.4 0.00 - - 0.00 40.6 67.6 2.7 0.0
8/30/26 - 0800 46.5 88 43.1 SSE | 157 0.0 0.7 0.0 12.9 0.00 - - 0.00 40.6 55.3 1.1 0.0
8/30/26 - 0700 40.9 93 39.0 SSE | 158 0.0 0.7 0.0 12.5 0.00 - - 0.00 40.6 46.7 1.1 0.0
8/30/26 - 0600 41.6 92 39.5 SSE | 158 0.0 0.1 0.0 12.5 0.00 - - 0.00 41.2 46.7 1.1 0.0
8/30/26 - 0500 42.2 91 39.8 SSE | 158 0.0 1.0 0.0 12.5 0.00 - - 0.00 41.7 46.7 1.1 0.0
8/30/26 - 0400 43.3 89 40.3 SSE | 158 0.0 0.9 0.0 12.5 0.00 - - 0.00 42.7 46.7 1.1 0.0
8/30/26 - 0300 44.6 88 41.2 N | 0 0.0 0.0 0.0 12.5 0.00 - - 0.00 44.0 46.7 1.1 0.0
8/30/26 - 0200 46.0 86 42.0 SSE | 158 0.1 1.1 0.0 12.6 0.00 - - 0.00 45.2 46.7 1.1 0.0
8/30/26 - 0100 47.6 82 42.4 SSE | 156 0.0 0.9 0.0 12.6 0.00 - - 0.00 35.9 88.4 16.0 0.0
8/30/26 - 0000 50.0 78 43.2 SSE | 153 0.1 1.1 0.0 12.6 0.00 - - 0.00 35.9 88.4 16.0 0.0
8/29/26 - 2300 53.7 70 44.1 SSE | 154 0.1 1.2 0.0 12.7 0.00 - - 0.00 35.9 88.4 16.0 0.0
8/29/26 - 2200 61.0 57 45.8 WSW | 254 0.5 4.5 0.0 12.7 0.00 - - 0.00 35.9 88.4 16.0 0.0
8/29/26 - 2100 65.5 51 46.7 W | 261 1.3 5.5 0.0 12.8 0.00 - - 0.00 35.9 88.4 16.0 0.0
8/29/26 - 2000 70.9 43 47.3 W | 275 1.9 9.6 0.0 13.0 0.00 - - 0.00 35.9 88.4 16.0 0.0
8/29/26 - 1900 77.6 35 48.0 W | 266 4.5 12.6 0.0 13.2 0.00 - - 0.00 35.9 88.4 16.0 0.0
8/29/26 - 1800 81.1 31 47.9 W | 262 5.6 13.3 0.0 13.1 0.00 - - 0.00 35.9 88.4 16.0 0.0
8/29/26 - 1700 83.8 29 47.8 W | 262 5.3 16.0 0.0 13.1 0.00 - - 0.00 35.9 88.4 16.0 0.0
8/29/26 - 1600 85.9 26 47.6 W | 269 4.2 15.1 0.0 13.0 0.00 - - 0.00 35.9 88.4 15.1 0.0
8/29/26 - 1500 87.0 27 49.1 W | 259 4.1 13.5 0.0 13.0 0.00 - - 0.00 35.9 88.4 13.5 0.0
8/29/26 - 1400 85.6 29 50.0 SSE | 160 2.6 10.7 0.0 13.1 0.00 - - 0.00 35.9 86.8 10.7 0.0
8/29/26 - 1300 83.2 31 49.2 SE | 137 2.6 8.7 0.0 13.1 0.00 - - 0.00 35.9 84.8 8.7 0.0
8/29/26 - 1200 78.9 36 49.7 SE | 143 2.5 6.7 0.0 13.1 0.00 - - 0.00 35.9 81.1 6.9 0.0
8/29/26 - 1100 75.5 40 49.4 SE | 126 2.4 6.9 0.0 13.2 0.00 - - 0.00 35.9 76.6 6.9 0.0
8/29/26 - 1000 70.1 44 47.4 E | 90 1.1 5.3 0.0 13.2 0.00 - - 0.00 35.9 73.5 5.3 0.0
8/29/26 - 0900 59.9 57 44.7 NNW | 330 0.4 2.6 0.0 13.4 0.00 - - 0.00 35.9 66.9 2.6 0.0
8/29/26 - 0800 42.9 82 37.7 NNW | 332 0.0 0.7 0.0 12.9 0.00 - - 0.00 35.9 53.5 1.1 0.0
8/29/26 - 0700 36.0 89 33.2 NNW | 332 0.0 0.9 0.0 12.5 0.00 - - 0.00 35.9 42.0 1.1 0.0
8/29/26 - 0600 36.7 88 33.5 NNW | 333 0.1 1.1 0.0 12.5 0.00 - - 0.00 36.3 42.0 1.1 0.0
8/29/26 - 0500 37.7 87 34.1 NNW | 333 0.0 1.1 0.0 12.5 0.00 - - 0.00 37.0 42.0 1.1 0.0
8/29/26 - 0400 38.8 85 34.6 NNW | 342 0.0 1.0 0.0 12.5 0.00 - - 0.00 38.2 42.0 1.0 0.0
8/29/26 - 0300 39.8 83 35.0 NNW | 337 0.0 0.7 0.0 12.6 0.00 - - 0.00 39.6 42.0 1.0 0.0
8/29/26 - 0200 41.0 81 35.6 N | 352 0.1 1.0 0.0 12.6 0.00 - - 0.00 40.2 42.0 1.0 0.0
8/29/26 - 0100 43.0 77 36.3 N | 0 0.0 0.0 0.0 12.6 0.00 - - 0.00 41.8 88.2 13.4 0.0
8/29/26 - 0000 45.3 74 37.4 N | 0 0.1 1.1 0.0 12.6 0.00 - - 0.00 44.1 88.2 13.4 0.0
8/28/26 - 2300 48.5 69 38.9 N | 0 0.0 0.9 0.0 12.7 0.00 - - 0.00 46.9 88.2 13.4 0.0
8/28/26 - 2200 53.8 59 39.6 W | 276 0.4 1.9 0.0 12.7 0.00 - - 0.00 50.8 88.2 13.4 0.0
8/28/26 - 2100 60.7 42 37.2 SW | 228 0.5 4.1 0.0 12.8 0.00 - - 0.00 50.9 88.2 13.4 0.0
8/28/26 - 2000 73.3 23 33.2 SW | 229 1.8 5.7 0.0 13.0 0.00 - - 0.00 50.9 88.2 13.4 0.0
8/28/26 - 1900 79.5 26 41.9 W | 262 3.1 10.2 0.0 13.2 0.00 - - 0.00 50.9 88.2 13.4 0.0
8/28/26 - 1800 79.5 31 46.5 W | 269 3.4 12.0 0.0 13.2 0.00 - - 0.00 50.9 88.2 13.4 0.0
8/28/26 - 1700 82.2 24 42.1 WNW | 283 2.6 10.2 0.0 13.2 0.00 - - 0.00 50.9 88.2 13.4 0.0
8/28/26 - 1600 83.9 20 38.8 W | 272 3.4 10.4 0.0 13.1 0.00 - - 0.00 50.9 88.2 13.4 0.0
8/28/26 - 1500 85.0 17 34.6 W | 272 3.6 13.4 0.0 13.1 0.00 - - 0.00 50.9 88.2 13.4 0.0
8/28/26 - 1400 82.2 23 40.2 SSE | 157 2.8 10.2 0.0 13.2 0.00 - - 0.00 50.9 83.4 10.2 0.0
8/28/26 - 1300 79.1 25 40.8 S | 185 2.7 7.8 0.0 13.2 0.00 - - 0.00 50.9 83.0 9.4 0.0
8/28/26 - 1200 81.1 21 37.6 SSE | 162 2.8 9.4 0.0 13.2 0.00 - - 0.00 50.9 83.0 9.4 0.0
8/28/26 - 1100 78.9 28 43.3 E | 95 2.5 7.9 0.0 13.2 0.00 - - 0.00 50.9 81.3 7.9 0.0
8/28/26 - 1000 67.4 50 47.7 SW | 230 0.3 2.5 0.0 13.4 0.00 - - 0.00 50.9 74.0 2.5 0.0
8/28/26 - 0900 59.7 60 45.8 SSW | 202 0.2 1.6 0.0 13.2 0.00 - - 0.00 50.9 63.3 1.9 0.0
8/28/26 - 0800 52.3 72 43.7 SW | 219 0.3 1.4 0.0 12.7 0.00 - - 0.00 50.9 60.9 1.9 0.0
8/28/26 - 0700 51.1 72 42.3 SW | 218 0.2 1.3 0.0 12.5 0.00 - - 0.00 50.9 60.9 1.9 0.0
Max 91.7 98 58.5 - 5.6 16.0 60.0 13.5 0.01 0.01 0.02 0.02 58.3 93.7 16.0 5.0
Avg 61.7 65 47.1 - 1.6 5.9 4.5 12.9 0.00 0.01 0.02 - - - - -
Min 36.0 16 33.2 - 0.0 0.0 0.0 12.5 0.00 0.01 0.01 0.00 35.9 42.0 0.9 0.0
Total - - - - - - - - 0.02 - - - - - - -